CYNL

SPECI CYNL 231443Z AUTO 31007KT 9SM SCT009 OVC012 M02/M04 A2990 RMK AO1 PRESRR SLP155
SPECI
LOCATION
CYNL
DATE - TIME
231443Z
WIND
310 TRUE @ 7 KNOTS
VISIBILITY
9SM
RUNWAY VISUAL RANGE
NOT REPORTED
WEATHER
CLOUDINESS
SCT009 OVC012
TEMP / DEWPOINT
-2 ºC / -4 ºC
ALTIMETER
29.90 in. Hg
RECENT WEATHER
NOT REPORTED
WIND SHEAR
NOT REPORTED
REMARKS
RMK AO1 PRESRR SLP155
SEA LEVEL PRESSURE: hPa

CYNL

SPECI CYNL 231436Z AUTO 31006KT 3SM BKN009 OVC011 M02/M03 A2989 RMK AO1 PRESRR SLP154
SPECI
LOCATION
CYNL
DATE - TIME
231436Z
WIND
310 TRUE @ 6 KNOTS
VISIBILITY
3SM
RUNWAY VISUAL RANGE
NOT REPORTED
WEATHER
CLOUDINESS
BKN009 OVC011
TEMP / DEWPOINT
-2 ºC / -3 ºC
ALTIMETER
29.89 in. Hg
RECENT WEATHER
NOT REPORTED
WIND SHEAR
NOT REPORTED
REMARKS
RMK AO1 PRESRR SLP154
SEA LEVEL PRESSURE: hPa

CYNL

SPECI CYNL 231435Z AUTO 31006KT 2SM OVC009 M02/M03 A2989 RMK AO1 PRESRR SLP153
SPECI
LOCATION
CYNL
DATE - TIME
231435Z
WIND
310 TRUE @ 6 KNOTS
VISIBILITY
2SM
RUNWAY VISUAL RANGE
NOT REPORTED
WEATHER
CLOUDINESS
OVC009
TEMP / DEWPOINT
-2 ºC / -3 ºC
ALTIMETER
29.89 in. Hg
RECENT WEATHER
NOT REPORTED
WIND SHEAR
NOT REPORTED
REMARKS
RMK AO1 PRESRR SLP153
SEA LEVEL PRESSURE: hPa

Your time UTC time
 
 
Weather data provided by AXYS Technologies Inc., www.axystechnologies.com
 
Station History